sensor_id;sensor_type;location;lat;lon;timestamp;pressure;altitude;pressure_sealevel;temperature;humidity
14882;BME280;7533;51.278;12.588;2022-09-12T00:02:59;100311.72;;;25.58;64.77
14882;BME280;7533;51.278;12.588;2022-09-12T00:08:02;100306.56;;;25.55;64.43
14882;BME280;7533;51.278;12.588;2022-09-12T00:13:05;100299.69;;;25.51;64.65
14882;BME280;7533;51.278;12.588;2022-09-12T00:18:13;100292.22;;;25.43;65.24
14882;BME280;7533;51.278;12.588;2022-09-12T00:23:15;100284.50;;;25.39;65.21
14882;BME280;7533;51.278;12.588;2022-09-12T00:28:18;100290.16;;;25.36;65.34
14882;BME280;7533;51.278;12.588;2022-09-12T00:33:22;100291.44;;;25.31;65.63
14882;BME280;7533;51.278;12.588;2022-09-12T00:38:25;100289.81;;;25.29;65.79
14882;BME280;7533;51.278;12.588;2022-09-12T00:43:36;100285.66;;;25.25;65.60
14882;BME280;7533;51.278;12.588;2022-09-12T00:48:44;100289.50;;;25.22;66.08
14882;BME280;7533;51.278;12.588;2022-09-12T00:53:49;100290.88;;;25.17;66.27
14882;BME280;7533;51.278;12.588;2022-09-12T00:58:57;100291.00;;;25.15;66.20
14882;BME280;7533;51.278;12.588;2022-09-12T01:04:03;100288.84;;;25.09;65.89
14882;BME280;7533;51.278;12.588;2022-09-12T01:09:06;100286.47;;;25.04;65.88
14882;BME280;7533;51.278;12.588;2022-09-12T01:14:10;100280.44;;;25.01;65.43
14882;BME280;7533;51.278;12.588;2022-09-12T01:19:31;100273.56;;;24.97;65.78
14882;BME280;7533;51.278;12.588;2022-09-12T01:24:53;100259.69;;;24.90;65.89
14882;BME280;7533;51.278;12.588;2022-09-12T01:30:25;100267.22;;;24.87;65.66
14882;BME280;7533;51.278;12.588;2022-09-12T01:35:34;100272.88;;;24.84;66.00
14882;BME280;7533;51.278;12.588;2022-09-12T01:40:44;100277.69;;;24.80;65.68
14882;BME280;7533;51.278;12.588;2022-09-12T01:45:55;100274.25;;;24.78;66.02
14882;BME280;7533;51.278;12.588;2022-09-12T01:51:03;100274.53;;;24.75;66.18
14882;BME280;7533;51.278;12.588;2022-09-12T01:56:13;100264.81;;;24.72;66.17
14882;BME280;7533;51.278;12.588;2022-09-12T02:01:25;100274.16;;;24.68;66.23
14882;BME280;7533;51.278;12.588;2022-09-12T02:06:34;100270.72;;;24.66;66.28
14882;BME280;7533;51.278;12.588;2022-09-12T02:11:41;100262.00;;;24.63;66.00
14882;BME280;7533;51.278;12.588;2022-09-12T02:16:49;100260.41;;;24.60;66.38
14882;BME280;7533;51.278;12.588;2022-09-12T02:21:55;100269.63;;;24.58;66.31
14882;BME280;7533;51.278;12.588;2022-09-12T02:27:03;100266.34;;;24.54;66.40
14882;BME280;7533;51.278;12.588;2022-09-12T02:32:15;100272.00;;;24.51;66.25
14882;BME280;7533;51.278;12.588;2022-09-12T02:37:27;100269.56;;;24.48;66.49
14882;BME280;7533;51.278;12.588;2022-09-12T02:42:32;100261.53;;;24.46;66.44
14882;BME280;7533;51.278;12.588;2022-09-12T02:47:39;100263.66;;;24.43;66.51
14882;BME280;7533;51.278;12.588;2022-09-12T02:52:44;100263.78;;;24.41;66.82
14882;BME280;7533;51.278;12.588;2022-09-12T02:57:47;100255.91;;;24.38;67.00
14882;BME280;7533;51.278;12.588;2022-09-12T03:03:10;100247.06;;;24.36;66.64
14882;BME280;7533;51.278;12.588;2022-09-12T03:08:45;100263.41;;;24.35;66.70
14882;BME280;7533;51.278;12.588;2022-09-12T03:13:59;100259.94;;;24.33;66.83
14882;BME280;7533;51.278;12.588;2022-09-12T03:19:13;100253.91;;;24.29;66.98
14882;BME280;7533;51.278;12.588;2022-09-12T03:24:20;100264.75;;;24.29;66.98
14882;BME280;7533;51.278;12.588;2022-09-12T03:29:26;100265.00;;;24.26;66.87
14882;BME280;7533;51.278;12.588;2022-09-12T03:34:31;100256.28;;;24.22;66.67
14882;BME280;7533;51.278;12.588;2022-09-12T03:39:34;100265.38;;;24.21;67.14
14882;BME280;7533;51.278;12.588;2022-09-12T03:44:36;100263.78;;;24.19;67.54
14882;BME280;7533;51.278;12.588;2022-09-12T03:49:40;100260.19;;;24.18;68.16
14882;BME280;7533;51.278;12.588;2022-09-12T03:54:43;100253.22;;;24.16;68.15
14882;BME280;7533;51.278;12.588;2022-09-12T03:59:47;100254.19;;;24.15;68.18
14882;BME280;7533;51.278;12.588;2022-09-12T04:04:51;100250.88;;;24.11;67.99
14882;BME280;7533;51.278;12.588;2022-09-12T04:09:53;100257.28;;;24.10;68.09
14882;BME280;7533;51.278;12.588;2022-09-12T04:14:56;100262.81;;;24.09;68.33
14882;BME280;7533;51.278;12.588;2022-09-12T04:20:01;100258.41;;;24.08;68.40
14882;BME280;7533;51.278;12.588;2022-09-12T04:25:05;100263.91;;;24.06;68.01
14882;BME280;7533;51.278;12.588;2022-09-12T04:30:10;100264.16;;;24.03;68.28
14882;BME280;7533;51.278;12.588;2022-09-12T04:35:14;100265.25;;;24.00;68.15
14882;BME280;7533;51.278;12.588;2022-09-12T04:40:17;100261.81;;;23.98;68.32
14882;BME280;7533;51.278;12.588;2022-09-12T04:45:20;100264.66;;;23.97;68.41
14882;BME280;7533;51.278;12.588;2022-09-12T04:50:24;100264.75;;;23.95;68.39
14882;BME280;7533;51.278;12.588;2022-09-12T04:55:27;100274.00;;;23.93;68.34
14882;BME280;7533;51.278;12.588;2022-09-12T05:00:30;100268.81;;;23.90;68.00
14882;BME280;7533;51.278;12.588;2022-09-12T05:05:34;100275.22;;;23.89;68.19
14882;BME280;7533;51.278;12.588;2022-09-12T05:10:37;100272.63;;;23.87;68.21
14882;BME280;7533;51.278;12.588;2022-09-12T05:15:40;100279.03;;;23.86;68.42
14882;BME280;7533;51.278;12.588;2022-09-12T05:20:44;100280.03;;;23.85;68.39
14882;BME280;7533;51.278;12.588;2022-09-12T05:25:48;100279.13;;;23.85;68.37
14882;BME280;7533;51.278;12.588;2022-09-12T05:30:59;100283.69;;;23.84;68.47
14882;BME280;7533;51.278;12.588;2022-09-12T05:36:05;100283.81;;;23.83;68.57
14882;BME280;7533;51.278;12.588;2022-09-12T05:41:09;100292.91;;;23.82;68.43
14882;BME280;7533;51.278;12.588;2022-09-12T05:46:20;100296.47;;;23.82;68.26
14882;BME280;7533;51.278;12.588;2022-09-12T05:51:27;100309.97;;;23.82;68.45
14882;BME280;7533;51.278;12.588;2022-09-12T05:56:32;100306.44;;;23.82;68.55
14882;BME280;7533;51.278;12.588;2022-09-12T06:01:35;100314.53;;;23.82;68.37
14882;BME280;7533;51.278;12.588;2022-09-12T06:06:41;100311.81;;;23.82;68.44
14882;BME280;7533;51.278;12.588;2022-09-12T06:11:46;100312.69;;;23.82;68.45
14882;BME280;7533;51.278;12.588;2022-09-12T06:16:49;100312.81;;;23.81;68.47
14882;BME280;7533;51.278;12.588;2022-09-12T06:21:53;100324.34;;;23.83;68.41
14882;BME280;7533;51.278;12.588;2022-09-12T06:26:56;100318.94;;;23.83;68.22
14882;BME280;7533;51.278;12.588;2022-09-12T06:31:58;100317.22;;;23.82;68.14
14882;BME280;7533;51.278;12.588;2022-09-12T06:37:02;100317.09;;;23.83;68.35
14882;BME280;7533;51.278;12.588;2022-09-12T06:42:05;100316.25;;;23.83;68.25
14882;BME280;7533;51.278;12.588;2022-09-12T06:47:09;100310.84;;;23.83;68.17
14882;BME280;7533;51.278;12.588;2022-09-12T06:52:14;100307.41;;;23.81;68.34
14882;BME280;7533;51.278;12.588;2022-09-12T06:57:16;100311.97;;;23.80;68.45
14882;BME280;7533;51.278;12.588;2022-09-12T07:02:19;100317.38;;;23.80;68.27
14882;BME280;7533;51.278;12.588;2022-09-12T07:07:23;100312.78;;;23.69;65.68
14882;BME280;7533;51.278;12.588;2022-09-12T07:12:26;100328.03;;;23.11;66.33
14882;BME280;7533;51.278;12.588;2022-09-12T07:17:29;100327.09;;;22.76;67.00
14882;BME280;7533;51.278;12.588;2022-09-12T07:22:33;100334.31;;;22.38;68.83
14882;BME280;7533;51.278;12.588;2022-09-12T07:27:35;100332.19;;;22.31;69.67
14882;BME280;7533;51.278;12.588;2022-09-12T07:32:39;100332.09;;;22.20;69.61
14882;BME280;7533;51.278;12.588;2022-09-12T07:37:42;100330.81;;;22.12;70.15
14882;BME280;7533;51.278;12.588;2022-09-12T07:42:45;100331.41;;;22.03;71.05
14882;BME280;7533;51.278;12.588;2022-09-12T07:47:48;100321.50;;;21.91;71.12
14882;BME280;7533;51.278;12.588;2022-09-12T07:52:53;100323.00;;;21.82;71.63
14882;BME280;7533;51.278;12.588;2022-09-12T07:57:56;100332.31;;;21.78;71.46
14882;BME280;7533;51.278;12.588;2022-09-12T08:02:59;100342.09;;;21.67;71.13
14882;BME280;7533;51.278;12.588;2022-09-12T08:08:04;100331.22;;;21.55;71.03
14882;BME280;7533;51.278;12.588;2022-09-12T08:13:07;100336.78;;;21.52;70.37
14882;BME280;7533;51.278;12.588;2022-09-12T08:18:11;100340.66;;;21.48;70.56
14882;BME280;7533;51.278;12.588;2022-09-12T08:23:15;100336.66;;;21.41;70.40
14882;BME280;7533;51.278;12.588;2022-09-12T08:28:21;100330.59;;;21.37;71.15
14882;BME280;7533;51.278;12.588;2022-09-12T08:33:24;100337.28;;;21.32;71.69
14882;BME280;7533;51.278;12.588;2022-09-12T08:38:29;100333.53;;;21.34;71.68
14882;BME280;7533;51.278;12.588;2022-09-12T08:43:48;100333.84;;;21.30;71.84
14882;BME280;7533;51.278;12.588;2022-09-12T08:49:00;100329.97;;;21.34;71.65
14882;BME280;7533;51.278;12.588;2022-09-12T08:54:18;100333.72;;;21.31;71.68
14882;BME280;7533;51.278;12.588;2022-09-12T08:59:20;100333.84;;;21.30;71.76
14882;BME280;7533;51.278;12.588;2022-09-12T09:04:32;100331.88;;;21.32;70.99
14882;BME280;7533;51.278;12.588;2022-09-12T09:09:50;100333.31;;;21.37;71.21
14882;BME280;7533;51.278;12.588;2022-09-12T09:15:06;100326.19;;;21.36;71.07
14882;BME280;7533;51.278;12.588;2022-09-12T09:20:21;100328.59;;;21.41;70.90
14882;BME280;7533;51.278;12.588;2022-09-12T09:25:38;100317.94;;;21.39;70.67
14882;BME280;7533;51.278;12.588;2022-09-12T09:30:42;100316.84;;;21.42;70.57
14882;BME280;7533;51.278;12.588;2022-09-12T09:35:49;100317.94;;;21.52;70.29
14882;BME280;7533;51.278;12.588;2022-09-12T09:41:09;100317.50;;;21.58;70.11
14882;BME280;7533;51.278;12.588;2022-09-12T09:46:16;100309.53;;;21.57;70.35
14882;BME280;7533;51.278;12.588;2022-09-12T09:51:23;100310.16;;;21.60;70.88
14882;BME280;7533;51.278;12.588;2022-09-12T09:56:32;100297.72;;;21.72;70.59
14882;BME280;7533;51.278;12.588;2022-09-12T10:01:36;100292.75;;;21.79;70.62
14882;BME280;7533;51.278;12.588;2022-09-12T10:06:39;100289.28;;;21.89;70.29
14882;BME280;7533;51.278;12.588;2022-09-12T10:11:44;100289.28;;;21.89;69.14
14882;BME280;7533;51.278;12.588;2022-09-12T10:16:48;100280.88;;;21.81;66.54
14882;BME280;7533;51.278;12.588;2022-09-12T10:21:54;100284.97;;;21.87;65.78
14882;BME280;7533;51.278;12.588;2022-09-12T10:27:08;100280.34;;;21.89;67.63
14882;BME280;7533;51.278;12.588;2022-09-12T10:32:21;100284.75;;;21.90;67.40
14882;BME280;7533;51.278;12.588;2022-09-12T10:37:32;100285.75;;;21.89;67.17
14882;BME280;7533;51.278;12.588;2022-09-12T10:42:48;100285.38;;;21.93;66.87
14882;BME280;7533;51.278;12.588;2022-09-12T10:47:51;100280.78;;;21.96;66.66
14882;BME280;7533;51.278;12.588;2022-09-12T10:53:12;100273.75;;;22.06;66.83
14882;BME280;7533;51.278;12.588;2022-09-12T10:58:29;100261.03;;;22.08;66.30
14882;BME280;7533;51.278;12.588;2022-09-12T11:03:48;100270.09;;;22.20;66.19
14882;BME280;7533;51.278;12.588;2022-09-12T11:09:05;100267.91;;;22.25;66.00
14882;BME280;7533;51.278;12.588;2022-09-12T11:14:35;100256.03;;;22.27;65.59
14882;BME280;7533;51.278;12.588;2022-09-12T11:19:50;100251.94;;;22.34;66.03
14882;BME280;7533;51.278;12.588;2022-09-12T11:25:07;100252.47;;;22.39;65.98
14882;BME280;7533;51.278;12.588;2022-09-12T11:30:16;100246.94;;;22.41;65.58
14882;BME280;7533;51.278;12.588;2022-09-12T11:35:22;100240.34;;;22.45;65.53
14882;BME280;7533;51.278;12.588;2022-09-12T11:40:31;100234.03;;;22.57;64.38
14882;BME280;7533;51.278;12.588;2022-09-12T11:45:51;100240.06;;;22.61;63.41
14882;BME280;7533;51.278;12.588;2022-09-12T11:50:55;100233.44;;;22.65;63.55
14882;BME280;7533;51.278;12.588;2022-09-12T11:56:03;100231.50;;;22.67;63.05
14882;BME280;7533;51.278;12.588;2022-09-12T12:01:12;100238.72;;;22.66;64.17
14882;BME280;7533;51.278;12.588;2022-09-12T12:06:18;100232.19;;;22.82;63.64
14882;BME280;7533;51.278;12.588;2022-09-12T12:11:29;100219.69;;;22.81;64.34
14882;BME280;7533;51.278;12.588;2022-09-12T12:16:36;100226.22;;;22.89;63.17
14882;BME280;7533;51.278;12.588;2022-09-12T12:21:40;100220.72;;;22.91;63.03
14882;BME280;7533;51.278;12.588;2022-09-12T12:26:55;100215.09;;;22.94;63.31
14882;BME280;7533;51.278;12.588;2022-09-12T12:32:20;100214.50;;;23.02;64.52
14882;BME280;7533;51.278;12.588;2022-09-12T12:37:49;100206.28;;;23.03;63.88
14882;BME280;7533;51.278;12.588;2022-09-12T12:42:58;100205.31;;;23.04;63.78
14882;BME280;7533;51.278;12.588;2022-09-12T12:48:09;100207.53;;;23.10;63.61
14882;BME280;7533;51.278;12.588;2022-09-12T12:53:19;100200.53;;;23.08;63.94
14882;BME280;7533;51.278;12.588;2022-09-12T12:58:28;100197.72;;;23.20;62.98
14882;BME280;7533;51.278;12.588;2022-09-12T13:03:34;100195.16;;;23.19;62.19
14882;BME280;7533;51.278;12.588;2022-09-12T13:08:39;100189.88;;;23.29;61.58
14882;BME280;7533;51.278;12.588;2022-09-12T13:13:49;100175.78;;;23.36;63.37
14882;BME280;7533;51.278;12.588;2022-09-12T13:18:56;100173.69;;;23.51;63.07
14882;BME280;7533;51.278;12.588;2022-09-12T13:24:05;100176.66;;;23.59;63.24
14882;BME280;7533;51.278;12.588;2022-09-12T13:29:15;100168.72;;;23.69;63.05
14882;BME280;7533;51.278;12.588;2022-09-12T13:34:23;100161.09;;;23.74;61.50
14882;BME280;7533;51.278;12.588;2022-09-12T13:39:30;100156.13;;;23.90;61.16
14882;BME280;7533;51.278;12.588;2022-09-12T13:44:41;100145.22;;;23.92;58.97
14882;BME280;7533;51.278;12.588;2022-09-12T13:49:47;100143.63;;;23.89;59.94
14882;BME280;7533;51.278;12.588;2022-09-12T13:54:52;100138.47;;;23.86;60.21
14882;BME280;7533;51.278;12.588;2022-09-12T13:59:56;100139.69;;;23.93;58.71
14882;BME280;7533;51.278;12.588;2022-09-12T14:05:10;100140.91;;;24.00;58.48
14882;BME280;7533;51.278;12.588;2022-09-12T14:10:15;100133.78;;;23.99;58.06
14882;BME280;7533;51.278;12.588;2022-09-12T14:15:25;100137.84;;;23.94;58.91
14882;BME280;7533;51.278;12.588;2022-09-12T14:20:34;100133.41;;;23.93;60.91
14882;BME280;7533;51.278;12.588;2022-09-12T14:25:39;100121.47;;;23.95;60.72
14882;BME280;7533;51.278;12.588;2022-09-12T14:30:56;100115.84;;;23.98;59.78
14882;BME280;7533;51.278;12.588;2022-09-12T14:36:10;100106.88;;;23.98;59.32
14882;BME280;7533;51.278;12.588;2022-09-12T14:41:21;100101.47;;;23.98;60.72
14882;BME280;7533;51.278;12.588;2022-09-12T14:46:29;100106.56;;;23.80;58.99
14882;BME280;7533;51.278;12.588;2022-09-12T14:51:37;100101.88;;;23.82;60.37
14882;BME280;7533;51.278;12.588;2022-09-12T14:56:43;100093.97;;;23.90;61.13
14882;BME280;7533;51.278;12.588;2022-09-12T15:02:25;100083.41;;;23.98;60.65
14882;BME280;7533;51.278;12.588;2022-09-12T15:07:32;100097.41;;;24.04;60.11
14882;BME280;7533;51.278;12.588;2022-09-12T15:12:36;100090.84;;;24.06;59.95
14882;BME280;7533;51.278;12.588;2022-09-12T15:17:38;100083.88;;;24.04;59.76
14882;BME280;7533;51.278;12.588;2022-09-12T15:22:42;100086.81;;;24.00;59.42
14882;BME280;7533;51.278;12.588;2022-09-12T15:27:46;100075.66;;;23.94;58.48
14882;BME280;7533;51.278;12.588;2022-09-12T15:32:49;100089.91;;;23.96;59.55
14882;BME280;7533;51.278;12.588;2022-09-12T15:37:53;100085.69;;;24.14;60.28
14882;BME280;7533;51.278;12.588;2022-09-12T15:42:56;100088.34;;;24.25;60.24
14882;BME280;7533;51.278;12.588;2022-09-12T15:47:59;100088.44;;;24.35;59.91
14882;BME280;7533;51.278;12.588;2022-09-12T15:53:04;100076.38;;;24.39;60.16
14882;BME280;7533;51.278;12.588;2022-09-12T15:58:07;100077.00;;;24.43;60.39
14882;BME280;7533;51.278;12.588;2022-09-12T16:03:19;100080.03;;;24.49;60.77
14882;BME280;7533;51.278;12.588;2022-09-12T16:08:24;100078.50;;;24.57;60.46
14882;BME280;7533;51.278;12.588;2022-09-12T16:13:27;100077.00;;;24.64;61.15
14882;BME280;7533;51.278;12.588;2022-09-12T16:18:30;100073.63;;;24.71;61.66
14882;BME280;7533;51.278;12.588;2022-09-12T16:23:34;100058.88;;;24.85;61.52
14882;BME280;7533;51.278;12.588;2022-09-12T16:28:37;100054.38;;;24.95;61.70
14882;BME280;7533;51.278;12.588;2022-09-12T16:33:40;100050.41;;;24.99;61.31
14882;BME280;7533;51.278;12.588;2022-09-12T16:38:46;100055.63;;;25.12;61.13
14882;BME280;7533;51.278;12.588;2022-09-12T16:43:49;100051.13;;;25.22;61.02
14882;BME280;7533;51.278;12.588;2022-09-12T16:48:54;100055.44;;;25.35;60.63
14882;BME280;7533;51.278;12.588;2022-09-12T16:53:58;100037.72;;;25.30;60.51
14882;BME280;7533;51.278;12.588;2022-09-12T16:59:01;100030.06;;;25.36;60.32
14882;BME280;7533;51.278;12.588;2022-09-12T17:04:05;100026.50;;;25.35;60.52
14882;BME280;7533;51.278;12.588;2022-09-12T17:09:10;100019.81;;;25.39;60.23
14882;BME280;7533;51.278;12.588;2022-09-12T17:14:16;100020.38;;;25.33;60.40
14882;BME280;7533;51.278;12.588;2022-09-12T17:19:21;100015.94;;;25.32;60.13
14882;BME280;7533;51.278;12.588;2022-09-12T17:24:28;100008.09;;;25.29;60.25
14882;BME280;7533;51.278;12.588;2022-09-12T17:29:30;100002.38;;;25.22;60.38
14882;BME280;7533;51.278;12.588;2022-09-12T17:34:35;100022.31;;;25.21;60.46
14882;BME280;7533;51.278;12.588;2022-09-12T17:39:39;100017.91;;;25.20;60.28
14882;BME280;7533;51.278;12.588;2022-09-12T17:44:42;100011.38;;;25.32;60.74
14882;BME280;7533;51.278;12.588;2022-09-12T17:49:44;100011.19;;;25.24;60.52
14882;BME280;7533;51.278;12.588;2022-09-12T17:54:49;100006.94;;;25.22;60.17
14882;BME280;7533;51.278;12.588;2022-09-12T17:59:52;100011.94;;;25.26;60.28
14882;BME280;7533;51.278;12.588;2022-09-12T18:04:54;100016.66;;;25.34;60.01
14882;BME280;7533;51.278;12.588;2022-09-12T18:09:59;100007.81;;;25.32;59.95
14882;BME280;7533;51.278;12.588;2022-09-12T18:15:01;100003.41;;;25.31;60.00
14882;BME280;7533;51.278;12.588;2022-09-12T18:20:05;100000.25;;;25.36;59.87
14882;BME280;7533;51.278;12.588;2022-09-12T18:25:09;100004.56;;;25.38;60.47
14882;BME280;7533;51.278;12.588;2022-09-12T18:30:12;100009.84;;;25.40;60.34
14882;BME280;7533;51.278;12.588;2022-09-12T18:35:22;100011.84;;;25.38;60.73
14882;BME280;7533;51.278;12.588;2022-09-12T18:40:26;100014.25;;;25.41;60.89
14882;BME280;7533;51.278;12.588;2022-09-12T18:45:29;100011.28;;;25.44;60.76
14882;BME280;7533;51.278;12.588;2022-09-12T18:50:32;100003.41;;;25.41;61.25
14882;BME280;7533;51.278;12.588;2022-09-12T18:55:36;100010.13;;;25.46;60.66
14882;BME280;7533;51.278;12.588;2022-09-12T19:00:39;99994.00;;;25.45;60.48
14882;BME280;7533;51.278;12.588;2022-09-12T19:05:41;100007.31;;;25.48;60.74
14882;BME280;7533;51.278;12.588;2022-09-12T19:10:53;100003.00;;;25.45;60.49
14882;BME280;7533;51.278;12.588;2022-09-12T19:15:56;100000.03;;;25.48;60.60
14882;BME280;7533;51.278;12.588;2022-09-12T19:20:59;99990.59;;;25.52;60.41
14882;BME280;7533;51.278;12.588;2022-09-12T19:26:05;99988.19;;;25.49;60.58
14882;BME280;7533;51.278;12.588;2022-09-12T19:31:11;99982.75;;;25.49;60.79
14882;BME280;7533;51.278;12.588;2022-09-12T19:36:16;99977.50;;;25.48;60.47
14882;BME280;7533;51.278;12.588;2022-09-12T19:41:40;99975.19;;;25.53;60.43
14882;BME280;7533;51.278;12.588;2022-09-12T19:46:43;99979.91;;;25.51;60.24
14882;BME280;7533;51.278;12.588;2022-09-12T19:51:45;99977.78;;;25.54;60.14
14882;BME280;7533;51.278;12.588;2022-09-12T19:56:50;99978.06;;;25.51;60.54
14882;BME280;7533;51.278;12.588;2022-09-12T20:01:52;99978.91;;;25.52;60.12
14882;BME280;7533;51.278;12.588;2022-09-12T20:06:55;99981.63;;;25.52;60.45
14882;BME280;7533;51.278;12.588;2022-09-12T20:11:59;99963.50;;;25.52;60.01
14882;BME280;7533;51.278;12.588;2022-09-12T20:17:02;99961.38;;;25.56;59.70
14882;BME280;7533;51.278;12.588;2022-09-12T20:22:05;99962.06;;;25.58;59.46
14882;BME280;7533;51.278;12.588;2022-09-12T20:27:09;99959.69;;;25.65;59.49
14882;BME280;7533;51.278;12.588;2022-09-12T20:32:12;99963.66;;;25.61;59.41
14882;BME280;7533;51.278;12.588;2022-09-12T20:37:15;99964.78;;;25.58;59.15
14882;BME280;7533;51.278;12.588;2022-09-12T20:42:19;99965.22;;;25.63;59.09
14882;BME280;7533;51.278;12.588;2022-09-12T20:47:21;99958.81;;;25.64;58.97
14882;BME280;7533;51.278;12.588;2022-09-12T20:52:24;99952.53;;;25.64;58.98
14882;BME280;7533;51.278;12.588;2022-09-12T20:57:28;99951.66;;;25.63;58.81
14882;BME280;7533;51.278;12.588;2022-09-12T21:02:31;99949.97;;;25.62;58.86
14882;BME280;7533;51.278;12.588;2022-09-12T21:07:34;99947.09;;;25.64;58.91
14882;BME280;7533;51.278;12.588;2022-09-12T21:12:38;99936.16;;;25.65;58.96
14882;BME280;7533;51.278;12.588;2022-09-12T21:17:41;99934.41;;;25.64;58.60
14882;BME280;7533;51.278;12.588;2022-09-12T21:22:44;99922.72;;;25.64;58.89
14882;BME280;7533;51.278;12.588;2022-09-12T21:27:48;99920.84;;;25.64;58.51
14882;BME280;7533;51.278;12.588;2022-09-12T21:32:50;99922.59;;;25.65;58.53
14882;BME280;7533;51.278;12.588;2022-09-12T21:37:53;99913.59;;;25.65;58.38
14882;BME280;7533;51.278;12.588;2022-09-12T21:42:57;99906.44;;;25.64;58.87
14882;BME280;7533;51.278;12.588;2022-09-12T21:48:00;99895.75;;;25.62;58.40
14882;BME280;7533;51.278;12.588;2022-09-12T21:53:03;99896.34;;;25.66;58.51
14882;BME280;7533;51.278;12.588;2022-09-12T21:58:07;99882.78;;;25.66;58.40
14882;BME280;7533;51.278;12.588;2022-09-12T22:03:11;99882.91;;;25.64;58.08
14882;BME280;7533;51.278;12.588;2022-09-12T22:08:14;99879.22;;;25.65;58.19
14882;BME280;7533;51.278;12.588;2022-09-12T22:13:19;99868.97;;;25.59;58.36
14882;BME280;7533;51.278;12.588;2022-09-12T22:18:21;99869.38;;;25.54;58.46
14882;BME280;7533;51.278;12.588;2022-09-12T22:23:26;99863.53;;;25.49;58.36
14882;BME280;7533;51.278;12.588;2022-09-12T22:28:48;99858.69;;;25.43;58.67
14882;BME280;7533;51.278;12.588;2022-09-12T22:33:53;99850.13;;;25.38;58.55
14882;BME280;7533;51.278;12.588;2022-09-12T22:38:57;99844.13;;;25.35;58.62
14882;BME280;7533;51.278;12.588;2022-09-12T22:44:01;99839.28;;;25.28;58.44
14882;BME280;7533;51.278;12.588;2022-09-12T22:49:05;99838.84;;;25.23;58.95
14882;BME280;7533;51.278;12.588;2022-09-12T22:54:09;99833.00;;;25.18;58.72
14882;BME280;7533;51.278;12.588;2022-09-12T22:59:13;99828.16;;;25.12;59.19
14882;BME280;7533;51.278;12.588;2022-09-12T23:04:16;99831.28;;;25.08;59.10
14882;BME280;7533;51.278;12.588;2022-09-12T23:09:18;99815.44;;;25.03;59.16
14882;BME280;7533;51.278;12.588;2022-09-12T23:14:22;99819.41;;;24.99;58.92
14882;BME280;7533;51.278;12.588;2022-09-12T23:19:25;99809.72;;;24.96;58.93
14882;BME280;7533;51.278;12.588;2022-09-12T23:24:27;99822.97;;;24.90;59.28
14882;BME280;7533;51.278;12.588;2022-09-12T23:29:31;99814.41;;;24.85;59.58
14882;BME280;7533;51.278;12.588;2022-09-12T23:34:35;99820.97;;;24.82;59.61
14882;BME280;7533;51.278;12.588;2022-09-12T23:39:38;99815.97;;;24.77;59.67
14882;BME280;7533;51.278;12.588;2022-09-12T23:44:42;99802.69;;;24.74;59.96
14882;BME280;7533;51.278;12.588;2022-09-12T23:49:45;99803.84;;;24.72;59.55
14882;BME280;7533;51.278;12.588;2022-09-12T23:54:48;99795.44;;;24.65;59.51
14882;BME280;7533;51.278;12.588;2022-09-12T23:59:52;99788.56;;;24.61;59.88
